createdAt,value
2023-04-06T00:01:49.442Z,9.77
2023-04-06T00:04:17.341Z,10.13
2023-04-06T00:06:45.072Z,9.83
2023-04-06T00:09:12.854Z,10.33
2023-04-06T00:11:41.875Z,10.23
2023-04-06T00:14:09.605Z,10.00
2023-04-06T00:16:37.547Z,10.17
2023-04-06T00:19:05.330Z,9.67
2023-04-06T00:21:33.171Z,10.37
2023-04-06T00:24:01.000Z,10.30
2023-04-06T00:26:28.722Z,9.43
2023-04-06T00:28:59.601Z,9.70
2023-04-06T00:31:27.355Z,10.53
2023-04-06T00:33:55.103Z,9.80
2023-04-06T00:36:22.892Z,10.03
2023-04-06T00:38:50.818Z,9.97
2023-04-06T00:41:19.517Z,9.70
2023-04-06T00:43:47.275Z,9.47
2023-04-06T00:46:16.458Z,10.13
2023-04-06T00:48:44.329Z,9.57
2023-04-06T00:51:12.041Z,9.20
2023-04-06T00:53:39.763Z,8.90
2023-04-06T00:56:10.658Z,9.50
2023-04-06T00:58:39.616Z,9.07
2023-04-06T01:01:07.450Z,9.50
2023-04-06T01:03:36.569Z,7.83
2023-04-06T01:06:04.586Z,8.43
2023-04-06T01:08:32.352Z,7.90
2023-04-06T01:11:01.966Z,8.10
2023-04-06T01:13:29.810Z,8.27
2023-04-06T01:15:57.762Z,8.80
2023-04-06T01:18:28.250Z,8.53
2023-04-06T01:20:57.621Z,8.67
2023-04-06T01:23:26.731Z,9.83
2023-04-06T01:25:54.558Z,8.90
2023-04-06T01:28:22.273Z,8.93
2023-04-06T01:30:50.112Z,9.30
2023-04-06T01:33:17.916Z,9.27
2023-04-06T01:35:46.039Z,8.70
2023-04-06T01:38:13.781Z,9.10
2023-04-06T01:40:42.852Z,8.93
2023-04-06T01:43:10.562Z,8.70
2023-04-06T01:45:38.345Z,9.37
2023-04-06T01:48:06.674Z,9.07
2023-04-06T01:50:34.430Z,9.47
2023-04-06T01:53:02.175Z,9.40
2023-04-06T01:55:29.965Z,10.20
2023-04-06T01:57:59.076Z,10.30
2023-04-06T02:00:26.805Z,10.27
2023-04-06T02:02:54.632Z,10.27
2023-04-06T02:05:22.400Z,10.73
2023-04-06T02:07:50.263Z,10.37
2023-04-06T02:10:18.030Z,9.70
2023-04-06T02:12:45.875Z,10.80
2023-04-06T02:15:15.486Z,9.67
2023-04-06T02:17:43.818Z,10.10
2023-04-06T02:20:12.046Z,9.93
2023-04-06T02:22:39.793Z,10.43
2023-04-06T02:25:08.079Z,9.47
2023-04-06T02:27:36.451Z,8.93
2023-04-06T02:30:04.631Z,9.37
2023-04-06T02:32:33.773Z,8.87
2023-04-06T02:35:02.215Z,9.80
2023-04-06T02:37:29.944Z,9.73
2023-04-06T02:39:57.671Z,10.50
2023-04-06T02:42:25.456Z,10.30
2023-04-06T02:44:53.216Z,10.20
2023-04-06T02:47:20.989Z,10.20
2023-04-06T02:49:50.059Z,9.30
2023-04-06T02:52:18.884Z,10.63
2023-04-06T02:54:46.615Z,10.00
2023-04-06T02:57:14.368Z,10.20
2023-04-06T02:59:42.159Z,10.47
2023-04-06T03:02:10.032Z,10.23
2023-04-06T03:04:37.813Z,10.43
2023-04-06T03:07:06.913Z,10.53
2023-04-06T03:09:35.276Z,11.13
2023-04-06T03:12:03.305Z,10.83
2023-04-06T03:14:31.092Z,10.53
2023-04-06T03:16:58.855Z,12.00
2023-04-06T03:19:26.621Z,12.33
2023-04-06T03:21:54.370Z,10.40
2023-04-06T03:24:23.440Z,11.10
2023-04-06T03:26:51.165Z,12.30
2023-04-06T03:29:18.916Z,11.47
2023-04-06T03:31:46.725Z,11.80
2023-04-06T03:34:14.496Z,14.70
2023-04-06T03:36:42.280Z,13.13
2023-04-06T03:39:10.241Z,12.20
2023-04-06T03:41:39.710Z,12.53
2023-04-06T03:44:07.818Z,12.23
2023-04-06T03:46:35.652Z,13.67
2023-04-06T03:49:03.440Z,12.60
2023-04-06T03:51:31.768Z,13.60
2023-04-06T03:53:59.486Z,13.33
2023-04-06T03:56:27.510Z,13.40
2023-04-06T03:58:56.693Z,12.93
2023-04-06T04:01:24.656Z,14.57
2023-04-06T04:03:53.237Z,14.00
2023-04-06T04:06:21.537Z,14.67
2023-04-06T04:08:49.268Z,14.33
2023-04-06T04:11:17.502Z,12.97
2023-04-06T04:13:45.442Z,14.03
2023-04-06T04:16:14.656Z,13.47
2023-04-06T04:18:44.569Z,13.33
2023-04-06T04:21:12.337Z,13.17
2023-04-06T04:23:40.216Z,12.17
2023-04-06T04:26:07.985Z,11.50
2023-04-06T04:28:35.796Z,10.80
2023-04-06T04:31:03.540Z,10.97
2023-04-06T04:33:32.604Z,11.83
2023-04-06T04:36:00.385Z,12.07
2023-04-06T04:38:28.152Z,11.80
2023-04-06T04:40:56.009Z,11.47
2023-04-06T04:43:23.757Z,11.63
2023-04-06T04:45:51.528Z,12.63
2023-04-06T04:48:19.284Z,13.27
2023-04-06T04:50:48.344Z,12.73
2023-04-06T04:53:16.073Z,12.40
2023-04-06T04:55:43.815Z,13.97
2023-04-06T04:58:15.277Z,13.30
2023-04-06T05:00:43.048Z,14.97
2023-04-06T05:03:11.417Z,12.93
2023-04-06T05:05:39.194Z,13.17
2023-04-06T05:08:08.274Z,12.30
2023-04-06T05:10:37.071Z,13.17
2023-04-06T05:13:04.834Z,13.43
2023-04-06T05:15:32.622Z,13.80
2023-04-06T05:18:00.985Z,15.00
2023-04-06T05:20:29.249Z,15.20
2023-04-06T05:22:56.962Z,16.53
2023-04-06T05:25:29.197Z,16.67
2023-04-06T05:27:57.145Z,14.27
2023-04-06T05:30:25.386Z,15.13
2023-04-06T05:32:53.283Z,17.97
2023-04-06T05:35:21.286Z,22.33
2023-04-06T05:37:49.061Z,19.00
2023-04-06T05:40:16.973Z,20.17
2023-04-06T05:42:46.034Z,20.27
2023-04-06T05:45:17.619Z,17.03
2023-04-06T05:47:46.412Z,15.60
2023-04-06T05:50:16.074Z,15.37
2023-04-06T05:52:46.185Z,20.10
2023-04-06T05:55:13.988Z,17.27
2023-04-06T05:57:41.857Z,16.27
2023-04-06T06:00:12.575Z,17.13
2023-04-06T06:02:40.816Z,16.23
2023-04-06T06:05:09.468Z,14.57
2023-04-06T06:07:37.295Z,14.87
2023-04-06T06:10:05.723Z,13.63
2023-04-06T06:12:33.474Z,12.77
2023-04-06T06:15:01.508Z,12.33
2023-04-06T06:17:30.623Z,12.43
2023-04-06T06:19:58.390Z,11.60
2023-04-06T06:22:26.149Z,10.63
2023-04-06T06:24:53.917Z,10.37
2023-04-06T06:27:21.784Z,9.93
2023-04-06T06:29:49.569Z,9.67
2023-04-06T06:32:17.408Z,9.23
2023-04-06T06:34:46.514Z,8.30
2023-04-06T06:37:14.245Z,7.67
2023-04-06T06:39:42.045Z,7.87
2023-04-06T06:42:14.606Z,7.27
2023-04-06T06:44:42.587Z,6.77
2023-04-06T06:47:10.341Z,6.70
2023-04-06T06:49:38.128Z,6.87
2023-04-06T06:52:07.304Z,6.90
2023-04-06T06:54:35.059Z,6.80
2023-04-06T06:57:02.788Z,6.67
2023-04-06T06:59:30.590Z,6.57
2023-04-06T07:01:58.499Z,6.57
2023-04-06T07:04:26.278Z,6.17
2023-04-06T07:06:54.090Z,6.00
2023-04-06T07:09:23.182Z,6.27
2023-04-06T07:11:51.023Z,6.13
2023-04-06T07:14:18.812Z,6.27
2023-04-06T07:16:47.918Z,6.27
2023-04-06T07:19:15.765Z,6.30
2023-04-06T07:21:43.613Z,6.13
2023-04-06T07:24:11.550Z,6.30
2023-04-06T07:26:40.754Z,5.53
2023-04-06T07:29:08.527Z,5.37
2023-04-06T07:31:37.009Z,5.97
2023-04-06T07:34:04.826Z,5.37
2023-04-06T07:36:32.571Z,4.80
2023-04-06T07:39:00.282Z,4.87
2023-04-06T07:41:28.079Z,3.97
2023-04-06T07:43:57.205Z,3.67
2023-04-06T07:46:25.002Z,3.93
2023-04-06T07:48:52.788Z,3.10
2023-04-06T07:51:20.730Z,3.47
2023-04-06T07:53:48.719Z,3.67
2023-04-06T07:56:17.222Z,3.70
2023-04-06T07:58:45.094Z,3.57
2023-04-06T08:01:14.497Z,3.97
2023-04-06T08:03:42.374Z,2.80
2023-04-06T08:06:10.639Z,3.40
2023-04-06T08:08:38.399Z,4.60
2023-04-06T08:11:06.172Z,3.70
2023-04-06T08:13:33.921Z,2.97
2023-04-06T08:16:02.210Z,2.70
2023-04-06T08:18:31.835Z,3.00
2023-04-06T08:20:59.594Z,2.70
2023-04-06T08:23:27.444Z,2.50
2023-04-06T08:25:55.339Z,2.33
2023-04-06T08:28:23.193Z,2.78
2023-04-06T08:30:51.166Z,2.45
2023-04-06T08:33:19.007Z,2.50
2023-04-06T08:35:48.095Z,2.53
2023-04-06T08:38:15.960Z,2.28
2023-04-06T08:40:45.367Z,2.38
2023-04-06T08:43:16.401Z,2.50
2023-04-06T08:45:44.899Z,2.35
2023-04-06T08:48:13.944Z,2.55
2023-04-06T08:50:42.079Z,2.10
2023-04-06T08:53:13.051Z,2.90
2023-04-06T08:55:41.824Z,2.20
2023-04-06T08:58:10.330Z,2.33
2023-04-06T09:00:40.151Z,2.30
2023-04-06T09:03:14.445Z,2.58
2023-04-06T09:05:42.294Z,2.00
2023-04-06T09:08:11.609Z,1.83
2023-04-06T09:10:42.901Z,1.77
2023-04-06T09:13:11.104Z,2.00
2023-04-06T09:15:39.982Z,1.88
2023-04-06T09:18:08.975Z,1.85
2023-04-06T09:20:36.890Z,1.90
2023-04-06T09:23:04.916Z,1.83
2023-04-06T09:25:34.278Z,1.90
2023-04-06T09:28:03.088Z,1.92
2023-04-06T09:30:31.416Z,1.85
2023-04-06T09:33:00.979Z,2.50
2023-04-06T09:35:30.955Z,2.13
2023-04-06T09:37:58.798Z,2.33
2023-04-06T09:40:26.566Z,2.08
2023-04-06T09:42:58.512Z,2.55
2023-04-06T09:45:27.268Z,1.90
2023-04-06T09:47:57.536Z,2.50
2023-04-06T09:50:27.696Z,2.25
2023-04-06T09:52:58.531Z,2.30
2023-04-06T09:55:32.620Z,1.92
2023-04-06T09:58:08.293Z,2.10
2023-04-06T10:00:44.955Z,2.22
2023-04-06T10:03:23.141Z,2.20
2023-04-06T10:05:59.349Z,2.38
2023-04-06T10:08:31.634Z,1.90
2023-04-06T10:11:01.729Z,1.90
2023-04-06T10:13:31.143Z,2.60
2023-04-06T10:16:01.599Z,2.10
2023-04-06T10:18:29.751Z,2.00
2023-04-06T10:21:02.785Z,2.35
2023-04-06T10:23:35.584Z,2.13
2023-04-06T10:26:04.615Z,2.10
2023-04-06T10:28:36.773Z,2.45
2023-04-06T10:31:07.373Z,2.42
2023-04-06T10:33:35.604Z,2.30
2023-04-06T10:36:12.497Z,2.70
2023-04-06T10:38:42.076Z,2.22
2023-04-06T10:41:11.679Z,2.55
2023-04-06T10:43:42.153Z,2.60
2023-04-06T10:46:11.718Z,2.05
2023-04-06T10:48:41.138Z,2.75
2023-04-06T10:51:14.196Z,2.50
2023-04-06T10:53:44.045Z,2.60
2023-04-06T10:56:15.848Z,2.45
2023-04-06T10:58:48.456Z,2.13
2023-04-06T11:01:17.470Z,2.95
2023-04-06T11:03:46.756Z,2.58
2023-04-06T11:06:20.714Z,2.63
2023-04-06T11:08:48.667Z,2.75
2023-04-06T11:11:19.301Z,5.30
2023-04-06T11:13:51.264Z,3.03
2023-04-06T11:16:20.553Z,2.80
2023-04-06T11:18:53.063Z,3.20
2023-04-06T11:21:21.077Z,2.83
2023-04-06T11:23:48.798Z,2.85
2023-04-06T11:26:17.271Z,2.65
2023-04-06T11:28:45.335Z,3.13
2023-04-06T11:31:14.529Z,2.88
2023-04-06T11:33:42.318Z,3.30
2023-04-06T11:36:10.572Z,3.25
2023-04-06T11:38:41.671Z,2.92
2023-04-06T11:41:09.540Z,3.55
2023-04-06T11:43:37.382Z,3.30
2023-04-06T11:46:06.294Z,3.22
2023-04-06T11:48:46.300Z,3.22
2023-04-06T11:51:14.347Z,2.85
2023-04-06T11:53:47.469Z,2.72
2023-04-06T11:56:25.913Z,3.33
2023-04-06T11:58:54.130Z,3.17
2023-04-06T12:01:22.087Z,2.88
2023-04-06T12:03:52.042Z,2.90
2023-04-06T12:06:20.718Z,3.42
2023-04-06T12:08:48.729Z,3.20
2023-04-06T12:11:16.632Z,3.03
2023-04-06T12:13:44.823Z,3.00
2023-04-06T12:16:12.954Z,3.13
2023-04-06T12:18:40.960Z,2.88
2023-04-06T12:21:10.437Z,3.20
2023-04-06T12:23:38.442Z,3.03
2023-04-06T12:26:06.586Z,3.10
2023-04-06T12:28:41.282Z,2.72
2023-04-06T12:31:09.694Z,3.10
2023-04-06T12:33:37.493Z,2.85
2023-04-06T12:36:05.462Z,3.08
2023-04-06T12:38:34.691Z,2.72
2023-04-06T12:41:02.457Z,3.20
2023-04-06T12:43:30.304Z,2.83
2023-04-06T12:45:58.070Z,2.70
2023-04-06T12:48:25.855Z,2.78
2023-04-06T12:50:56.859Z,3.10
2023-04-06T12:53:24.690Z,2.97
2023-04-06T12:55:55.540Z,2.97
2023-04-06T12:58:24.139Z,2.88
2023-04-06T13:00:52.744Z,3.08
2023-04-06T13:03:21.003Z,3.20
2023-04-06T13:05:50.340Z,2.95
2023-04-06T13:08:19.611Z,3.00
2023-04-06T13:10:49.755Z,2.90
2023-04-06T13:13:19.452Z,2.80
2023-04-06T13:15:47.494Z,2.70
2023-04-06T13:18:15.501Z,2.85
2023-04-06T13:20:43.616Z,2.88
2023-04-06T13:23:11.659Z,2.78
2023-04-06T13:25:39.443Z,2.83
2023-04-06T13:28:07.281Z,3.22
2023-04-06T13:30:36.701Z,2.92
2023-04-06T13:33:05.729Z,2.70
2023-04-06T13:35:33.710Z,3.10
2023-04-06T13:38:01.446Z,3.03
2023-04-06T13:40:29.241Z,3.10
2023-04-06T13:42:56.961Z,2.88
2023-04-06T13:45:24.786Z,2.30
2023-04-06T13:47:53.914Z,2.88
2023-04-06T13:50:22.092Z,2.83
2023-04-06T13:52:50.594Z,2.80
2023-04-06T13:55:18.646Z,2.83
2023-04-06T13:57:46.424Z,3.20
2023-04-06T14:00:15.862Z,2.75
2023-04-06T14:02:43.801Z,3.10
2023-04-06T14:05:13.585Z,2.92
2023-04-06T14:07:41.348Z,2.42
2023-04-06T14:10:15.026Z,3.00
2023-04-06T14:12:43.522Z,2.75
2023-04-06T14:15:13.025Z,2.90
2023-04-06T14:17:41.396Z,3.50
2023-04-06T14:20:14.882Z,2.72
2023-04-06T14:22:44.456Z,2.92
2023-04-06T14:25:13.683Z,2.90
2023-04-06T14:27:41.487Z,2.67
2023-04-06T14:30:10.669Z,3.65
2023-04-06T14:32:38.676Z,2.50
2023-04-06T14:35:07.992Z,2.70
2023-04-06T14:37:36.138Z,2.92
2023-04-06T14:40:05.929Z,2.58
2023-04-06T14:42:34.705Z,2.70
2023-04-06T14:45:02.480Z,2.78
2023-04-06T14:47:30.268Z,3.00
2023-04-06T14:49:58.773Z,3.30
2023-04-06T14:52:26.514Z,2.75
2023-04-06T14:54:54.665Z,2.58
2023-04-06T14:57:23.969Z,2.57
2023-04-06T14:59:55.159Z,2.70
2023-04-06T15:02:23.208Z,2.78
2023-04-06T15:04:53.256Z,2.90
2023-04-06T15:07:21.783Z,3.67
2023-04-06T15:09:49.544Z,2.93
2023-04-06T15:12:17.284Z,2.80
2023-04-06T15:14:46.614Z,2.72
2023-04-06T15:17:14.382Z,2.40
2023-04-06T15:19:42.126Z,2.63
2023-04-06T15:22:09.948Z,2.43
2023-04-06T15:24:37.771Z,2.40
2023-04-06T15:27:05.611Z,2.53
2023-04-06T15:29:33.495Z,2.27
2023-04-06T15:32:02.929Z,2.60
2023-04-06T15:34:33.628Z,3.28
2023-04-06T15:37:04.779Z,2.80
2023-04-06T15:39:32.726Z,2.30
2023-04-06T15:42:01.104Z,2.50
2023-04-06T15:44:28.889Z,2.10
2023-04-06T15:46:56.874Z,2.23
2023-04-06T15:49:26.097Z,2.33
2023-04-06T15:51:53.985Z,2.40
2023-04-06T15:54:21.789Z,2.50
2023-04-06T15:56:50.618Z,2.47
2023-04-06T15:59:18.577Z,2.27
2023-04-06T16:01:47.411Z,2.43
2023-04-06T16:04:17.921Z,2.53
2023-04-06T16:06:47.034Z,2.80
2023-04-06T16:09:14.800Z,2.20
2023-04-06T16:11:42.655Z,2.10
2023-04-06T16:14:10.460Z,2.40
2023-04-06T16:16:38.257Z,2.60
2023-04-06T16:19:06.086Z,2.70
2023-04-06T16:21:33.782Z,2.20
2023-04-06T16:24:02.867Z,2.40
2023-04-06T16:26:31.875Z,2.70
2023-04-06T16:28:59.771Z,2.20
2023-04-06T16:31:27.627Z,2.27
2023-04-06T16:33:58.036Z,2.30
2023-04-06T16:36:27.447Z,2.20
2023-04-06T16:38:55.864Z,2.40
2023-04-06T16:41:25.396Z,2.10
2023-04-06T16:43:53.712Z,2.37
2023-04-06T16:46:21.547Z,2.50
2023-04-06T16:48:49.316Z,2.90
2023-04-06T16:51:18.748Z,2.50
2023-04-06T16:53:47.923Z,2.40
2023-04-06T16:56:16.360Z,2.10
2023-04-06T16:58:46.214Z,2.40
2023-04-06T17:01:25.275Z,1.90
2023-04-06T17:03:53.590Z,2.00
2023-04-06T17:06:22.371Z,2.20
2023-04-06T17:08:51.158Z,2.20
2023-04-06T17:11:23.499Z,2.43
2023-04-06T17:13:57.369Z,3.03
2023-04-06T17:16:27.141Z,2.60
2023-04-06T17:18:58.165Z,3.30
2023-04-06T17:21:26.335Z,2.57
2023-04-06T17:23:54.116Z,2.50
2023-04-06T17:26:22.389Z,2.83
2023-04-06T17:28:50.243Z,2.47
2023-04-06T17:31:42.996Z,2.20
2023-04-06T17:34:11.333Z,2.63
2023-04-06T17:36:39.113Z,2.50
2023-04-06T17:39:06.891Z,2.40
2023-04-06T17:41:35.012Z,3.07
2023-04-06T17:44:02.899Z,2.43
2023-04-06T17:46:30.952Z,3.30
2023-04-06T17:49:00.190Z,3.10
2023-04-06T17:51:28.167Z,2.80
2023-04-06T17:53:55.985Z,3.23
2023-04-06T17:56:24.360Z,3.87
2023-04-06T17:58:55.733Z,3.63
2023-04-06T18:01:23.485Z,2.43
2023-04-06T18:03:51.787Z,2.43
2023-04-06T18:06:24.172Z,2.40
2023-04-06T18:08:53.135Z,2.80
2023-04-06T18:11:21.967Z,3.03
2023-04-06T18:13:49.992Z,3.27
2023-04-06T18:16:20.144Z,3.07
2023-04-06T18:18:48.241Z,3.30
2023-04-06T18:21:16.156Z,2.60
2023-04-06T18:23:45.532Z,3.20
2023-04-06T18:26:17.536Z,2.77
2023-04-06T18:28:45.530Z,2.60
2023-04-06T18:31:13.439Z,2.27
2023-04-06T18:33:41.283Z,2.80
2023-04-06T18:36:09.904Z,2.67
2023-04-06T18:38:39.301Z,2.93
2023-04-06T18:41:08.450Z,2.97
2023-04-06T18:43:36.971Z,3.17
2023-04-06T18:46:05.086Z,3.50
2023-04-06T18:48:32.885Z,3.87
2023-04-06T18:51:02.023Z,3.70
2023-04-06T18:53:30.432Z,4.20
2023-04-06T18:55:58.706Z,4.43
2023-04-06T18:58:28.188Z,4.40
2023-04-06T19:00:57.396Z,4.67
2023-04-06T19:03:25.452Z,4.83
2023-04-06T19:05:53.792Z,5.87
2023-04-06T19:08:21.693Z,8.00
2023-04-06T19:10:49.431Z,8.33
2023-04-06T19:13:17.346Z,8.50
2023-04-06T19:15:46.475Z,7.97
2023-04-06T19:18:14.222Z,7.60
2023-04-06T19:20:41.943Z,7.90
2023-04-06T19:23:09.726Z,8.97
2023-04-06T19:25:37.461Z,8.30
2023-04-06T19:28:05.581Z,8.30
2023-04-06T19:30:33.364Z,7.90
2023-04-06T19:33:02.774Z,8.13
2023-04-06T19:35:30.896Z,9.47
2023-04-06T19:37:58.653Z,9.13
2023-04-06T19:40:26.438Z,8.00
2023-04-06T19:42:54.237Z,9.20
2023-04-06T19:45:22.053Z,9.93
2023-04-06T19:47:50.013Z,9.30
2023-04-06T19:50:19.089Z,9.73
2023-04-06T19:52:46.869Z,8.70
2023-04-06T19:55:14.877Z,10.30
2023-04-06T19:57:42.739Z,9.70
2023-04-06T20:00:11.671Z,8.73
2023-04-06T20:02:39.738Z,8.73
2023-04-06T20:05:08.133Z,8.73
2023-04-06T20:07:39.510Z,8.83
2023-04-06T20:10:09.599Z,9.57
2023-04-06T20:12:37.790Z,10.93
2023-04-06T20:15:06.401Z,11.00
2023-04-06T20:17:34.340Z,10.40
2023-04-06T20:20:02.222Z,10.50
2023-04-06T20:22:29.984Z,11.57
2023-04-06T20:24:59.092Z,11.07
2023-04-06T20:27:27.352Z,10.37
2023-04-06T20:29:56.051Z,11.43
2023-04-06T20:32:24.024Z,11.43
2023-04-06T20:34:52.595Z,10.33
2023-04-06T20:37:21.418Z,12.57
2023-04-06T20:39:49.262Z,13.13
2023-04-06T20:42:18.915Z,13.47
2023-04-06T20:44:46.722Z,13.63
2023-04-06T20:47:14.594Z,13.87
2023-04-06T20:49:42.395Z,13.00
2023-04-06T20:52:10.583Z,13.83
2023-04-06T20:54:38.352Z,12.53
2023-04-06T20:57:06.158Z,13.40
2023-04-06T20:59:35.345Z,12.97
2023-04-06T21:02:03.287Z,11.37
2023-04-06T21:04:31.274Z,11.37
2023-04-06T21:06:59.196Z,11.00
2023-04-06T21:09:28.096Z,13.60
2023-04-06T21:11:55.897Z,13.47
2023-04-06T21:14:23.902Z,13.73
2023-04-06T21:16:55.732Z,13.47
2023-04-06T21:19:23.685Z,13.53
2023-04-06T21:21:51.796Z,13.00
2023-04-06T21:24:19.773Z,13.33
2023-04-06T21:26:47.569Z,12.20
2023-04-06T21:29:15.373Z,13.80
2023-04-06T21:31:43.186Z,12.83
2023-04-06T21:34:13.304Z,11.67
2023-04-06T21:36:42.080Z,10.50
2023-04-06T21:39:10.337Z,10.60
2023-04-06T21:41:40.357Z,9.80
2023-04-06T21:44:08.142Z,9.17
2023-04-06T21:46:35.961Z,9.60
2023-04-06T21:49:03.706Z,9.87
2023-04-06T21:51:32.835Z,9.87
2023-04-06T21:54:01.843Z,9.40
2023-04-06T21:56:29.658Z,9.43
2023-04-06T21:58:57.400Z,9.63
2023-04-06T22:01:25.160Z,9.37
2023-04-06T22:03:56.449Z,10.20
2023-04-06T22:06:25.764Z,9.97
2023-04-06T22:08:56.038Z,10.47
2023-04-06T22:11:23.840Z,10.20
2023-04-06T22:13:51.884Z,10.50
2023-04-06T22:16:19.682Z,12.13
2023-04-06T22:18:47.480Z,10.17
2023-04-06T22:21:15.507Z,11.23
2023-04-06T22:23:43.263Z,10.80
2023-04-06T22:26:13.181Z,10.37
2023-04-06T22:28:40.982Z,9.70
2023-04-06T22:31:08.866Z,9.40
2023-04-06T22:33:36.788Z,8.77
2023-04-06T22:36:04.917Z,8.87
2023-04-06T22:38:32.905Z,8.03
2023-04-06T22:41:00.694Z,8.77
2023-04-06T22:43:30.113Z,8.50
2023-04-06T22:45:58.426Z,8.73
2023-04-06T22:48:26.300Z,8.63
2023-04-06T22:50:54.248Z,8.70
2023-04-06T22:53:21.984Z,7.73
2023-04-06T22:55:49.731Z,8.20
2023-04-06T22:58:17.982Z,8.50
2023-04-06T23:00:47.253Z,8.73
2023-04-06T23:03:15.164Z,8.60
2023-04-06T23:05:43.017Z,8.03
2023-04-06T23:08:10.863Z,8.37
2023-04-06T23:10:41.919Z,8.57
2023-04-06T23:13:09.832Z,8.17
2023-04-06T23:15:38.041Z,8.03
2023-04-06T23:18:07.389Z,7.60
2023-04-06T23:20:35.975Z,8.30
2023-04-06T23:23:04.095Z,8.30
2023-04-06T23:25:31.993Z,8.37
2023-04-06T23:27:59.747Z,8.43
2023-04-06T23:30:27.487Z,7.80
2023-04-06T23:32:55.285Z,8.33
2023-04-06T23:35:24.511Z,8.40
2023-04-06T23:37:52.293Z,8.40
2023-04-06T23:40:20.670Z,7.90
2023-04-06T23:42:48.401Z,8.73
2023-04-06T23:45:16.166Z,8.93
2023-04-06T23:47:45.945Z,8.47
2023-04-06T23:50:13.850Z,9.10
2023-04-06T23:52:42.906Z,7.60
2023-04-06T23:55:11.295Z,9.43
2023-04-06T23:57:39.108Z,8.40
